Time;durP1;ratioP1;P1;durP2;ratioP2;P2;SDS_P1;SDS_P2;PMS_P1;PMS_P2;Temp;Humidity;BMP_temperature;BMP_pressure;BME280_temperature;BME280_humidity;BME280_pressure;Samples;Min_cycle;Max_cycle;Signal;HPM_P1;HPM_P2
2023/03/12 00:02:09;;;;;;;6.57;5.28;;;0.60;99.90;;;;;;5051571;28;20115;-66
2023/03/12 00:04:35;;;;;;;8.07;4.93;;;0.50;99.90;;;;;;5051151;28;20044;-66
2023/03/12 00:07:01;;;;;;;8.50;5.03;;;0.50;99.90;;;;;;5050567;28;20049;-66
2023/03/12 00:09:27;;;;;;;8.00;5.30;;;0.50;99.90;;;;;;5047125;28;20037;-66
2023/03/12 00:11:52;;;;;;;10.93;5.50;;;0.50;99.90;;;;;;5048865;28;20052;-66
2023/03/12 00:14:18;;;;;;;10.15;5.18;;;0.50;99.90;;;;;;5033458;28;20113;-66
2023/03/12 00:16:44;;;;;;;6.82;4.72;;;0.50;99.90;;;;;;5051464;28;20078;-66
2023/03/12 00:19:11;;;;;;;8.23;5.05;;;0.50;99.90;;;;;;5051971;28;20056;-66
2023/03/12 00:21:37;;;;;;;6.50;5.18;;;0.50;99.90;;;;;;5034431;28;20044;-66
2023/03/12 00:24:03;;;;;;;8.45;5.65;;;0.40;99.90;;;;;;5048376;28;20041;-66
2023/03/12 00:26:28;;;;;;;7.20;4.95;;;0.40;99.90;;;;;;5051756;28;20037;-66
2023/03/12 00:28:54;;;;;;;9.98;5.75;;;0.40;99.90;;;;;;5034789;28;20410;-66
2023/03/12 00:31:26;;;;;;;8.45;5.82;;;0.40;99.90;;;;;;5049838;28;20405;-66
2023/03/12 00:33:52;;;;;;;7.82;4.82;;;0.40;99.90;;;;;;5035332;28;20133;-66
2023/03/12 00:36:20;;;;;;;6.55;5.03;;;0.30;99.90;;;;;;5034767;28;20037;-66
2023/03/12 00:38:46;;;;;;;9.38;6.07;;;0.30;99.90;;;;;;5052633;28;20120;-66
2023/03/12 00:41:11;;;;;;;6.63;5.10;;;0.30;99.90;;;;;;5048067;28;20108;-66
2023/03/12 00:43:37;;;;;;;6.57;4.68;;;0.30;99.90;;;;;;5052295;28;20132;-66
2023/03/12 00:46:03;;;;;;;9.25;5.30;;;0.30;99.90;;;;;;5050688;28;20040;-66
2023/03/12 00:48:28;;;;;;;5.60;4.45;;;0.30;99.90;;;;;;5052279;28;20057;-66
2023/03/12 00:50:54;;;;;;;7.90;4.93;;;0.30;99.90;;;;;;5050738;28;20044;-66
2023/03/12 00:53:19;;;;;;;6.35;4.95;;;0.30;99.90;;;;;;5052564;28;20063;-66
2023/03/12 00:55:45;;;;;;;8.35;5.25;;;0.20;99.90;;;;;;5031302;28;20049;-66
2023/03/12 00:58:11;;;;;;;9.13;5.15;;;0.30;99.90;;;;;;5033680;28;20052;-66
2023/03/12 01:00:36;;;;;;;12.15;5.43;;;0.30;99.90;;;;;;5049739;28;20036;-66
2023/03/12 01:03:02;;;;;;;7.47;5.40;;;0.20;99.90;;;;;;5050588;28;20029;-65
2023/03/12 01:05:27;;;;;;;7.95;5.43;;;0.30;99.90;;;;;;5034008;28;20123;-66
2023/03/12 01:07:53;;;;;;;7.97;4.68;;;0.20;99.90;;;;;;5050782;28;20040;-66
2023/03/12 01:10:19;;;;;;;7.43;4.72;;;0.20;99.90;;;;;;5050743;28;20063;-66
2023/03/12 01:12:46;;;;;;;10.10;4.85;;;0.20;99.90;;;;;;5014890;28;20512;-66
2023/03/12 01:15:14;;;;;;;10.07;5.07;;;0.20;99.90;;;;;;5026273;28;20137;-67
2023/03/12 01:17:40;;;;;;;7.47;4.95;;;0.10;99.90;;;;;;5030002;28;20487;-66
2023/03/12 01:20:07;;;;;;;7.63;4.85;;;0.10;99.90;;;;;;5031787;28;20033;-66
2023/03/12 01:22:33;;;;;;;7.50;4.65;;;0.20;99.90;;;;;;5032806;28;20040;-65
2023/03/12 01:24:58;;;;;;;9.98;5.18;;;0.10;99.90;;;;;;5044093;28;20111;-66
2023/03/12 01:27:24;;;;;;;9.52;5.55;;;0.20;99.90;;;;;;5051432;28;20041;-66
2023/03/12 01:29:49;;;;;;;6.15;4.78;;;0.20;99.90;;;;;;5050443;28;20072;-66
2023/03/12 01:32:15;;;;;;;8.95;5.13;;;0.20;99.90;;;;;;5031872;28;20029;-66
2023/03/12 01:34:42;;;;;;;10.02;5.25;;;0.10;99.90;;;;;;5051875;28;20048;-66
2023/03/12 01:37:07;;;;;;;7.40;4.70;;;0.10;99.90;;;;;;5051290;28;20710;-66
2023/03/12 01:39:33;;;;;;;11.60;5.25;;;0.10;99.90;;;;;;5044117;28;20029;-66
2023/03/12 01:41:59;;;;;;;7.65;4.70;;;0.20;99.90;;;;;;5041078;28;20033;-66
2023/03/12 01:44:25;;;;;;;7.22;4.93;;;0.20;99.90;;;;;;5041935;28;20379;-66
2023/03/12 01:46:50;;;;;;;8.82;5.05;;;0.20;99.90;;;;;;5041816;28;20048;-66
2023/03/12 01:49:19;;;;;;;9.93;5.28;;;0.10;99.90;;;;;;5044055;28;20490;-66
2023/03/12 01:51:50;;;;;;;7.32;4.28;;;0.20;99.90;;;;;;5045161;28;20037;-66
2023/03/12 01:54:31;;;;;;;6.70;4.47;;;0.20;99.90;;;;;;5050308;28;20112;-66
2023/03/12 01:56:57;;;;;;;10.40;4.72;;;0.20;99.90;;;;;;5044618;28;20037;-66
2023/03/12 01:59:28;;;;;;;9.57;5.18;;;0.20;99.90;;;;;;5049939;28;20116;-66
2023/03/12 02:01:54;;;;;;;7.80;4.80;;;0.20;99.90;;;;;;5049532;28;20505;-66
2023/03/12 02:04:22;;;;;;;7.43;4.53;;;0.30;99.90;;;;;;5047112;28;20037;-66
2023/03/12 02:07:02;;;;;;;7.78;4.10;;;0.30;99.90;;;;;;5049473;28;20041;-66
2023/03/12 02:09:31;;;;;;;6.53;4.03;;;0.30;99.90;;;;;;5048005;28;20040;-66
2023/03/12 02:11:56;;;;;;;6.30;4.03;;;0.30;99.90;;;;;;5045870;28;20036;-66
2023/03/12 02:14:22;;;;;;;7.10;3.67;;;0.30;99.90;;;;;;5050737;28;20036;-66
2023/03/12 02:16:48;;;;;;;7.05;4.10;;;0.30;99.90;;;;;;5050584;28;20033;-66
2023/03/12 02:19:50;;;;;;;9.38;3.88;;;0.40;99.90;;;;;;5050144;28;20033;-66
2023/03/12 02:22:17;;;;;;;8.75;3.92;;;0.40;99.90;;;;;;5048476;28;20055;-66
2023/03/12 02:24:54;;;;;;;5.65;3.55;;;0.40;99.90;;;;;;5032604;28;20108;-66
2023/03/12 02:27:20;;;;;;;6.72;3.88;;;0.40;99.90;;;;;;5049135;28;20043;-66
2023/03/12 02:29:47;;;;;;;5.25;3.78;;;0.40;99.90;;;;;;5049597;28;20044;-66
2023/03/12 02:32:20;;;;;;;7.75;3.80;;;0.40;99.90;;;;;;5049721;28;20087;-66
2023/03/12 02:34:46;;;;;;;7.35;3.53;;;0.40;99.90;;;;;;5030602;28;20041;-66
2023/03/12 02:37:13;;;;;;;6.68;3.80;;;0.40;99.90;;;;;;5049012;28;20099;-66
2023/03/12 02:39:41;;;;;;;6.53;3.65;;;0.40;99.90;;;;;;5048126;28;20108;-66
2023/03/12 02:42:06;;;;;;;6.57;3.60;;;0.50;99.90;;;;;;5050404;28;20116;-66
2023/03/12 02:44:33;;;;;;;6.80;3.67;;;0.50;99.90;;;;;;5050316;28;20545;-66
2023/03/12 02:47:00;;;;;;;7.00;3.38;;;0.50;99.90;;;;;;5047369;28;20083;-66
2023/03/12 02:49:31;;;;;;;5.07;3.50;;;0.50;99.90;;;;;;5045139;28;20035;-66
2023/03/12 02:51:57;;;;;;;5.40;3.22;;;0.50;99.90;;;;;;5044286;28;20052;-66
2023/03/12 02:54:23;;;;;;;7.05;4.07;;;0.50;99.90;;;;;;5050118;28;20029;-67
2023/03/12 02:56:50;;;;;;;4.68;3.63;;;0.50;99.90;;;;;;5051166;28;20065;-67
2023/03/12 02:59:19;;;;;;;5.70;3.28;;;0.60;99.90;;;;;;5043453;28;20035;-67
2023/03/12 03:01:45;;;;;;;5.75;3.35;;;0.60;99.90;;;;;;5027265;28;20037;-67
2023/03/12 03:04:11;;;;;;;5.72;3.60;;;0.60;99.90;;;;;;5047443;28;20047;-67
2023/03/12 03:06:39;;;;;;;4.95;3.53;;;0.50;99.90;;;;;;5044141;28;20482;-66
2023/03/12 03:09:05;;;;;;;8.93;3.80;;;0.60;99.90;;;;;;5029496;28;20076;-67
2023/03/12 03:11:31;;;;;;;5.88;3.72;;;0.60;99.90;;;;;;5029781;28;20075;-67
2023/03/12 03:13:56;;;;;;;5.85;3.47;;;0.60;99.90;;;;;;5049399;28;20033;-67
2023/03/12 03:16:22;;;;;;;6.90;3.88;;;0.60;99.90;;;;;;5047270;28;20047;-67
2023/03/12 03:18:49;;;;;;;7.10;3.50;;;0.60;99.90;;;;;;5043545;28;20498;-67
2023/03/12 03:21:17;;;;;;;7.10;3.40;;;0.60;99.90;;;;;;5049538;28;20071;-67
2023/03/12 03:23:45;;;;;;;6.20;3.30;;;0.70;99.90;;;;;;5045897;28;20033;-67
2023/03/12 03:26:11;;;;;;;4.95;3.78;;;0.60;99.90;;;;;;5049910;28;20029;-67
2023/03/12 03:28:37;;;;;;;6.43;3.95;;;0.60;99.90;;;;;;5049957;28;20068;-67
2023/03/12 03:31:03;;;;;;;5.70;3.65;;;0.70;99.90;;;;;;5048606;28;20079;-67
2023/03/12 03:33:31;;;;;;;6.22;3.70;;;0.70;99.90;;;;;;5048183;28;20487;-67
2023/03/12 03:35:58;;;;;;;7.30;4.22;;;0.70;99.90;;;;;;5032747;28;20060;-67
2023/03/12 03:38:28;;;;;;;5.85;3.88;;;0.70;99.90;;;;;;5047738;28;20127;-67
2023/03/12 03:40:54;;;;;;;5.63;4.00;;;0.70;99.90;;;;;;5049033;28;20065;-67
2023/03/12 03:43:20;;;;;;;7.05;4.65;;;0.70;99.90;;;;;;5033656;28;20043;-67
2023/03/12 03:45:46;;;;;;;6.63;4.40;;;0.70;99.90;;;;;;5052869;28;20048;-66
2023/03/12 03:48:12;;;;;;;10.32;5.10;;;0.70;99.90;;;;;;5018890;28;20032;-67
2023/03/12 03:50:39;;;;;;;8.68;5.13;;;0.70;99.90;;;;;;5050730;28;20033;-67
2023/03/12 03:53:06;;;;;;;9.15;4.72;;;0.70;99.90;;;;;;5029991;28;20034;-67
2023/03/12 03:55:36;;;;;;;6.75;4.90;;;0.80;99.90;;;;;;5032208;28;20047;-67
2023/03/12 03:58:01;;;;;;;8.48;4.80;;;0.80;99.90;;;;;;5064033;22;20063;-68
2023/03/12 04:00:27;;;;;;;8.20;4.80;;;0.80;99.90;;;;;;5049928;28;20033;-68
2023/03/12 04:02:54;;;;;;;11.07;5.55;;;0.80;99.90;;;;;;5053090;28;20036;-68
2023/03/12 04:05:20;;;;;;;7.90;5.30;;;0.80;99.90;;;;;;5053642;28;20474;-68
2023/03/12 04:07:46;;;;;;;10.52;5.55;;;0.80;99.90;;;;;;5051988;28;20040;-68
2023/03/12 04:10:12;;;;;;;10.20;5.50;;;0.80;99.90;;;;;;5051716;28;20041;-68
2023/03/12 04:12:37;;;;;;;7.05;4.95;;;0.80;99.90;;;;;;5044208;28;20099;-68
2023/03/12 04:15:03;;;;;;;8.27;5.15;;;0.90;99.90;;;;;;5034078;28;20515;-68
2023/03/12 04:17:29;;;;;;;7.13;5.70;;;0.90;99.90;;;;;;5040923;28;20140;-68
2023/03/12 04:19:54;;;;;;;7.70;5.47;;;0.90;99.90;;;;;;5046747;28;20132;-68
2023/03/12 04:22:20;;;;;;;9.65;5.57;;;0.90;99.90;;;;;;5042159;28;20041;-68
2023/03/12 04:24:45;;;;;;;10.65;5.75;;;0.90;99.90;;;;;;5051152;28;20083;-68
2023/03/12 04:27:11;;;;;;;12.43;6.15;;;0.90;99.90;;;;;;5047584;28;20033;-68
2023/03/12 04:29:38;;;;;;;10.73;6.28;;;0.90;99.90;;;;;;5049713;28;20065;-68
2023/03/12 04:32:04;;;;;;;12.75;6.30;;;1.00;99.90;;;;;;5051865;28;20598;-68
2023/03/12 04:34:30;;;;;;;13.57;6.03;;;0.90;99.90;;;;;;5052109;28;20047;-68
2023/03/12 04:36:55;;;;;;;12.75;6.70;;;1.00;99.90;;;;;;5043761;28;20401;-68
2023/03/12 04:39:21;;;;;;;10.55;6.50;;;0.90;99.90;;;;;;5051668;28;20033;-68
2023/03/12 04:41:46;;;;;;;11.68;6.25;;;0.90;99.90;;;;;;5051219;28;20041;-69
2023/03/12 04:44:13;;;;;;;9.80;6.55;;;1.00;99.90;;;;;;5051242;28;20031;-68
2023/03/12 04:46:39;;;;;;;13.13;6.68;;;1.00;99.90;;;;;;5052477;28;20033;-68
2023/03/12 04:49:04;;;;;;;12.70;7.07;;;1.00;99.90;;;;;;5049680;28;20094;-68
2023/03/12 04:51:31;;;;;;;10.48;7.00;;;1.00;99.90;;;;;;5050926;28;20064;-68
2023/03/12 04:53:58;;;;;;;9.63;7.38;;;1.00;99.90;;;;;;5051845;28;20451;-68
2023/03/12 04:56:23;;;;;;;8.98;7.00;;;1.00;99.90;;;;;;5050580;28;20394;-68
2023/03/12 04:58:50;;;;;;;11.48;7.20;;;1.00;99.90;;;;;;5047702;28;20044;-68
2023/03/12 05:01:26;;;;;;;11.20;6.63;;;1.00;99.90;;;;;;5048019;28;20485;-68
2023/03/12 05:03:53;;;;;;;13.00;7.25;;;1.00;99.90;;;;;;5048999;28;20110;-68
2023/03/12 05:06:19;;;;;;;12.32;6.97;;;1.00;99.90;;;;;;5050713;28;20478;-68
2023/03/12 05:08:46;;;;;;;16.70;7.25;;;1.00;99.90;;;;;;5050557;28;20406;-68
2023/03/12 05:11:12;;;;;;;10.77;7.65;;;1.00;99.90;;;;;;5046851;28;20505;-68
2023/03/12 05:13:37;;;;;;;10.98;7.63;;;1.00;99.90;;;;;;5050204;28;20037;-68
2023/03/12 05:16:03;;;;;;;11.75;8.32;;;1.00;99.90;;;;;;5047161;28;20037;-68
2023/03/12 05:18:29;;;;;;;10.27;7.43;;;1.10;99.90;;;;;;5040501;28;20042;-68
2023/03/12 05:21:04;;;;;;;15.18;7.25;;;1.10;99.90;;;;;;5046156;28;20139;-68
2023/03/12 05:23:31;;;;;;;14.27;7.95;;;1.10;99.90;;;;;;5050206;28;20047;-68
2023/03/12 05:25:57;;;;;;;11.38;7.95;;;1.00;99.90;;;;;;5046787;28;20029;-68
2023/03/12 05:28:26;;;;;;;12.05;8.10;;;1.10;99.90;;;;;;5048694;28;20040;-68
2023/03/12 05:30:54;;;;;;;11.90;8.13;;;1.10;99.90;;;;;;5044792;28;20037;-68
2023/03/12 05:33:20;;;;;;;11.40;7.93;;;1.10;99.90;;;;;;5051887;28;20037;-68
2023/03/12 05:35:45;;;;;;;12.48;8.07;;;1.10;99.90;;;;;;5046929;28;20037;-67
2023/03/12 05:38:11;;;;;;;11.45;7.90;;;1.10;99.90;;;;;;5050922;28;20055;-67
2023/03/12 05:40:36;;;;;;;14.95;8.80;;;1.10;99.90;;;;;;5046205;28;20036;-67
2023/03/12 05:43:02;;;;;;;13.27;8.23;;;1.10;99.90;;;;;;5048341;28;20069;-67
2023/03/12 05:45:28;;;;;;;14.30;8.48;;;1.10;99.90;;;;;;5048709;28;20052;-67
2023/03/12 05:47:53;;;;;;;14.13;8.88;;;1.10;99.90;;;;;;5039823;28;20040;-67
2023/03/12 05:50:19;;;;;;;12.43;8.65;;;1.10;99.90;;;;;;5050765;28;20044;-67
2023/03/12 05:52:44;;;;;;;13.40;8.68;;;1.10;99.90;;;;;;5050746;28;20094;-67
2023/03/12 05:55:10;;;;;;;16.67;9.00;;;1.10;99.90;;;;;;5045169;28;20090;-67
2023/03/12 05:57:36;;;;;;;15.82;8.73;;;1.10;99.90;;;;;;5050873;28;20699;-67
2023/03/12 06:00:01;;;;;;;13.80;8.43;;;1.10;99.90;;;;;;5052160;28;20406;-67
2023/03/12 06:02:27;;;;;;;11.55;8.10;;;1.10;99.90;;;;;;5050015;28;20083;-67
2023/03/12 06:04:53;;;;;;;11.15;8.27;;;1.10;99.90;;;;;;5049701;28;20041;-67
2023/03/12 06:07:18;;;;;;;12.43;8.40;;;1.10;99.90;;;;;;5050388;28;20040;-67
2023/03/12 06:09:44;;;;;;;18.15;9.30;;;1.10;99.90;;;;;;5051390;28;20057;-68
2023/03/12 06:12:09;;;;;;;11.18;8.23;;;1.10;99.90;;;;;;5048504;28;20120;-67
2023/03/12 06:14:35;;;;;;;13.15;8.05;;;1.10;99.90;;;;;;5050689;28;20044;-67
2023/03/12 06:17:01;;;;;;;14.60;8.07;;;1.20;99.90;;;;;;5050969;28;20037;-67
2023/03/12 06:19:27;;;;;;;13.88;7.50;;;1.20;99.90;;;;;;5050840;28;20497;-67
2023/03/12 06:21:52;;;;;;;16.33;8.18;;;1.20;99.90;;;;;;5049715;28;20112;-67
2023/03/12 06:24:18;;;;;;;16.42;8.95;;;1.20;99.90;;;;;;5049568;28;20490;-67
2023/03/12 06:26:43;;;;;;;13.05;8.05;;;1.20;99.90;;;;;;5050610;28;20407;-67
2023/03/12 06:29:09;;;;;;;11.35;8.55;;;1.20;99.90;;;;;;5049165;28;20037;-67
2023/03/12 06:31:34;;;;;;;13.43;7.70;;;1.30;99.90;;;;;;5043858;28;20041;-67
2023/03/12 06:34:00;;;;;;;11.52;7.43;;;1.30;99.90;;;;;;5048860;28;20040;-67
2023/03/12 06:36:25;;;;;;;12.88;7.45;;;1.30;99.90;;;;;;5049467;28;20048;-67
2023/03/12 06:38:51;;;;;;;10.68;8.10;;;1.30;99.90;;;;;;5049321;28;20116;-67
2023/03/12 06:41:19;;;;;;;15.35;7.72;;;1.30;99.90;;;;;;5046709;28;20116;-67
2023/03/12 06:43:45;;;;;;;12.30;7.25;;;1.30;99.90;;;;;;5050548;28;20040;-67
2023/03/12 06:46:15;;;;;;;12.93;8.02;;;1.30;99.90;;;;;;5049909;28;20033;-67
2023/03/12 06:48:42;;;;;;;10.32;7.43;;;1.30;99.90;;;;;;5050318;28;20127;-67
2023/03/12 06:51:09;;;;;;;12.32;8.32;;;1.30;99.90;;;;;;5048488;28;20039;-67
2023/03/12 06:53:35;;;;;;;11.52;7.65;;;1.40;99.90;;;;;;5049655;28;20102;-67
2023/03/12 06:56:01;;;;;;;14.98;8.80;;;1.40;99.90;;;;;;5051558;28;20048;-67
2023/03/12 06:58:27;;;;;;;15.23;8.38;;;1.30;99.90;;;;;;5051239;28;20098;-67
2023/03/12 07:00:54;;;;;;;10.07;8.13;;;1.40;99.90;;;;;;5048442;28;20040;-67
2023/03/12 07:03:19;;;;;;;10.93;9.05;;;1.40;99.90;;;;;;5049345;28;20072;-67
2023/03/12 07:05:46;;;;;;;12.40;8.57;;;1.40;99.90;;;;;;5049614;28;20080;-67
2023/03/12 07:08:12;;;;;;;14.98;8.95;;;1.40;99.90;;;;;;5051120;28;20505;-67
2023/03/12 07:10:38;;;;;;;11.00;7.97;;;1.40;99.90;;;;;;5049334;28;20029;-67
2023/03/12 07:13:04;;;;;;;12.23;7.95;;;1.40;99.90;;;;;;5050149;28;20087;-67
2023/03/12 07:15:29;;;;;;;11.73;8.35;;;1.40;99.90;;;;;;5045920;28;20059;-67
2023/03/12 07:17:58;;;;;;;12.98;8.93;;;1.40;99.90;;;;;;5045095;28;20171;-67
2023/03/12 07:20:23;;;;;;;15.65;9.00;;;1.40;99.90;;;;;;5053242;28;20142;-67
2023/03/12 07:22:49;;;;;;;14.88;8.60;;;1.50;99.90;;;;;;5049837;28;20155;-67
2023/03/12 07:25:15;;;;;;;12.00;8.75;;;1.50;99.90;;;;;;5048578;28;20410;-67
2023/03/12 07:27:40;;;;;;;13.13;8.23;;;1.50;99.90;;;;;;5049036;28;20082;-66
2023/03/12 07:30:06;;;;;;;12.93;9.23;;;1.40;99.90;;;;;;5049117;28;20064;-66
2023/03/12 07:32:35;;;;;;;12.88;8.38;;;1.40;99.90;;;;;;5047821;28;20094;-67
2023/03/12 07:35:02;;;;;;;14.45;8.38;;;1.50;99.90;;;;;;5045075;28;20033;-66
2023/03/12 07:37:27;;;;;;;11.68;8.00;;;1.50;99.90;;;;;;5052574;28;20581;-66
2023/03/12 07:39:53;;;;;;;13.95;8.98;;;1.50;99.90;;;;;;5052646;28;20043;-65
2023/03/12 07:42:19;;;;;;;9.43;7.93;;;1.60;99.90;;;;;;5049552;28;20037;-66
2023/03/12 07:44:44;;;;;;;14.60;8.35;;;1.50;99.90;;;;;;5050855;28;20043;-65
2023/03/12 07:47:10;;;;;;;12.35;8.23;;;1.60;99.90;;;;;;5052388;28;20441;-65
2023/03/12 07:49:35;;;;;;;13.35;8.48;;;1.60;99.90;;;;;;5051588;28;20040;-65
2023/03/12 07:52:01;;;;;;;25.35;15.77;;;1.60;99.90;;;;;;5052332;28;20041;-65
2023/03/12 07:54:29;;;;;;;14.18;9.07;;;1.60;99.90;;;;;;5052873;28;20414;-65
2023/03/12 07:56:55;;;;;;;14.90;9.45;;;1.60;99.90;;;;;;5050295;28;20068;-65
2023/03/12 07:59:22;;;;;;;13.70;8.75;;;1.60;99.90;;;;;;5053023;28;20048;-64
2023/03/12 08:01:48;;;;;;;16.45;8.38;;;1.70;99.90;;;;;;5050498;28;20394;-64
2023/03/12 08:04:13;;;;;;;10.82;8.05;;;1.70;99.90;;;;;;5052232;28;20083;-64
2023/03/12 08:06:41;;;;;;;16.00;8.85;;;1.70;99.90;;;;;;5049867;28;20548;-63
2023/03/12 08:09:08;;;;;;;13.30;8.20;;;1.60;99.90;;;;;;5053810;28;20033;-63
2023/03/12 08:11:35;;;;;;;12.80;8.05;;;1.70;99.90;;;;;;5050145;28;20040;-63
2023/03/12 08:14:00;;;;;;;15.48;8.95;;;1.70;99.90;;;;;;5047543;28;20043;-63
2023/03/12 08:16:26;;;;;;;12.85;8.63;;;1.60;99.90;;;;;;5052376;28;20041;-62
2023/03/12 08:18:51;;;;;;;11.73;8.43;;;1.70;99.90;;;;;;5050195;28;20045;-63
2023/03/12 08:21:17;;;;;;;13.93;8.38;;;1.60;99.90;;;;;;5053067;28;20033;-62
2023/03/12 08:23:42;;;;;;;17.58;9.60;;;1.70;99.90;;;;;;5051377;28;20025;-62
2023/03/12 08:26:08;;;;;;;11.60;7.70;;;1.60;99.90;;;;;;5052501;28;20032;-63
2023/03/12 08:28:34;;;;;;;14.90;8.68;;;1.70;99.90;;;;;;5051552;28;20090;-63
2023/03/12 08:30:59;;;;;;;11.90;8.65;;;1.70;99.90;;;;;;5050614;28;20041;-63
2023/03/12 08:33:25;;;;;;;11.38;8.55;;;1.70;99.90;;;;;;5050393;28;20407;-62
2023/03/12 08:35:51;;;;;;;12.40;8.23;;;1.70;99.90;;;;;;5052892;28;20452;-63
2023/03/12 08:38:17;;;;;;;11.30;7.60;;;1.80;99.90;;;;;;5052157;28;20029;-63
2023/03/12 08:40:43;;;;;;;14.02;8.02;;;1.80;99.90;;;;;;5051274;28;20025;-63
2023/03/12 08:43:09;;;;;;;14.05;8.77;;;1.80;99.90;;;;;;5051647;28;20062;-62
2023/03/12 08:45:37;;;;;;;11.20;8.63;;;1.90;99.90;;;;;;5051302;28;20421;-63
2023/03/12 08:48:05;;;;;;;13.02;7.78;;;1.90;99.90;;;;;;5050747;28;20485;-63
2023/03/12 08:50:32;;;;;;;13.23;8.70;;;1.90;99.90;;;;;;5048332;28;20405;-63
2023/03/12 08:52:58;;;;;;;14.95;8.80;;;1.90;99.90;;;;;;5051962;28;20032;-63
2023/03/12 08:55:25;;;;;;;15.93;9.38;;;1.90;99.90;;;;;;5049631;28;20043;-63
2023/03/12 08:57:50;;;;;;;16.20;9.10;;;1.90;99.90;;;;;;5051547;28;20041;-63
2023/03/12 09:00:16;;;;;;;16.17;9.95;;;1.90;99.90;;;;;;5052170;28;20506;-63
2023/03/12 09:02:45;;;;;;;11.93;8.98;;;1.90;99.90;;;;;;5049443;28;20033;-62
2023/03/12 09:05:12;;;;;;;15.48;9.32;;;1.90;99.90;;;;;;5049045;28;20401;-63
2023/03/12 09:07:38;;;;;;;17.85;9.13;;;1.90;99.90;;;;;;5047935;28;20433;-63
2023/03/12 09:10:04;;;;;;;16.73;9.85;;;1.90;99.90;;;;;;5049602;28;20040;-63
2023/03/12 09:12:30;;;;;;;14.27;9.85;;;1.90;99.90;;;;;;5048051;28;20486;-63
2023/03/12 09:14:56;;;;;;;14.57;8.88;;;1.90;99.90;;;;;;5050647;28;20076;-63
2023/03/12 09:17:22;;;;;;;15.70;8.77;;;1.90;99.90;;;;;;5050023;28;20098;-64
2023/03/12 09:19:48;;;;;;;13.23;9.60;;;1.90;99.90;;;;;;5046810;28;20041;-64
2023/03/12 09:22:14;;;;;;;14.20;9.32;;;1.90;99.90;;;;;;5048497;28;20029;-64
2023/03/12 09:24:39;;;;;;;12.38;8.82;;;1.90;99.90;;;;;;5050311;28;20482;-63
2023/03/12 09:27:05;;;;;;;15.63;9.25;;;1.90;99.90;;;;;;5042262;28;20818;-63
2023/03/12 09:29:31;;;;;;;12.48;8.45;;;1.90;99.90;;;;;;5046963;28;20037;-63
2023/03/12 09:31:57;;;;;;;15.18;10.07;;;1.90;99.90;;;;;;5048121;28;20039;-63
2023/03/12 09:34:23;;;;;;;14.07;9.35;;;1.90;99.90;;;;;;5049200;28;20036;-64
2023/03/12 09:36:49;;;;;;;17.02;10.43;;;1.90;99.90;;;;;;5046430;28;20513;-63
2023/03/12 09:39:15;;;;;;;14.63;10.35;;;1.90;99.90;;;;;;5051780;28;20048;-63
2023/03/12 09:41:43;;;;;;;15.18;10.18;;;1.90;99.90;;;;;;5031537;28;20048;-63
2023/03/12 09:44:31;;;;;;;23.38;12.00;;;1.90;99.90;;;;;;5050930;28;20025;-64
2023/03/12 09:47:17;;;;;;;14.95;10.52;;;1.90;99.90;;;;;;5047475;28;20497;-64
2023/03/12 09:49:48;;;;;;;16.52;11.63;;;1.90;99.90;;;;;;5034694;28;20051;-64
2023/03/12 09:52:45;;;;;;;16.35;11.38;;;1.90;99.90;;;;;;5047969;28;20036;-64
2023/03/12 09:55:15;;;;;;;17.13;11.73;;;1.90;99.90;;;;;;5049283;28;20037;-63
2023/03/12 09:57:45;;;;;;;18.33;11.35;;;1.90;99.90;;;;;;5048650;28;20094;-64
2023/03/12 10:00:13;;;;;;;20.02;12.55;;;1.90;99.90;;;;;;5050933;28;20082;-63
2023/03/12 10:02:46;;;;;;;20.75;12.77;;;1.90;99.90;;;;;;5048037;28;20048;-62
2023/03/12 10:05:34;;;;;;;21.35;12.57;;;2.00;99.90;;;;;;5049701;28;20041;-63
2023/03/12 10:08:12;;;;;;;21.15;13.32;;;2.00;99.90;;;;;;5043999;28;20045;-64
2023/03/12 10:10:49;;;;;;;23.60;15.00;;;2.00;99.90;;;;;;5047124;28;20062;-63
2023/03/12 10:13:52;;;;;;;21.73;14.05;;;2.10;99.90;;;;;;5045424;28;20040;-64
2023/03/12 10:16:39;;;;;;;26.23;14.30;;;2.10;99.90;;;;;;5043474;28;20076;-64
2023/03/12 10:19:24;;;;;;;25.05;15.65;;;2.20;99.90;;;;;;5046471;28;20064;-64
2023/03/12 10:22:04;;;;;;;22.35;15.18;;;2.20;99.90;;;;;;5042059;28;20061;-64
2023/03/12 10:24:48;;;;;;;27.70;16.58;;;2.30;99.90;;;;;;5047447;28;20033;-66
2023/03/12 10:27:17;;;;;;;26.33;17.25;;;2.30;99.90;;;;;;5044867;28;20067;-65
2023/03/12 10:29:46;;;;;;;27.70;16.55;;;2.40;99.90;;;;;;5047525;28;20041;-64
2023/03/12 10:32:17;;;;;;;29.65;16.75;;;2.40;99.90;;;;;;5048334;28;20040;-65
2023/03/12 10:34:50;;;;;;;29.20;16.10;;;2.50;99.90;;;;;;5043490;28;20143;-65
2023/03/12 10:37:23;;;;;;;28.40;16.30;;;2.50;99.90;;;;;;5042934;28;20124;-66
2023/03/12 10:39:50;;;;;;;26.48;17.15;;;2.60;99.90;;;;;;5047605;28;20380;-64
2023/03/12 10:42:24;;;;;;;26.25;17.08;;;2.60;99.90;;;;;;5041516;28;20033;-64
2023/03/12 10:44:59;;;;;;;25.88;17.85;;;2.60;99.90;;;;;;5044892;28;20073;-64
2023/03/12 10:47:42;;;;;;;32.38;17.60;;;2.70;99.90;;;;;;5060570;22;20053;-63
2023/03/12 10:50:26;;;;;;;27.65;16.02;;;2.70;99.90;;;;;;5049875;28;20048;-62
2023/03/12 10:53:11;;;;;;;27.73;17.33;;;2.80;99.90;;;;;;5042455;28;20494;-63
2023/03/12 10:55:37;;;;;;;23.50;13.82;;;2.80;99.90;;;;;;5049394;28;20029;-63
2023/03/12 10:58:02;;;;;;;27.83;17.10;;;2.90;99.90;;;;;;5050682;28;20077;-63
2023/03/12 11:00:33;;;;;;;26.45;16.67;;;2.90;99.90;;;;;;5049103;28;20037;-63
2023/03/12 11:03:17;;;;;;;23.90;15.88;;;3.00;99.90;;;;;;5046941;28;20056;-63
2023/03/12 11:05:52;;;;;;;22.90;14.77;;;3.00;99.90;;;;;;5053100;28;20043;-63
2023/03/12 11:08:28;;;;;;;24.58;14.65;;;3.00;99.90;;;;;;5045998;28;20044;-63
2023/03/12 11:10:55;;;;;;;21.90;14.60;;;3.00;99.90;;;;;;5052084;28;20492;-64
2023/03/12 11:13:36;;;;;;;23.45;15.38;;;3.10;99.90;;;;;;5047729;28;20048;-63
2023/03/12 11:16:23;;;;;;;23.63;15.27;;;3.10;99.90;;;;;;5052130;28;20487;-65
2023/03/12 11:19:00;;;;;;;24.60;15.52;;;3.10;99.90;;;;;;5052081;28;20079;-64
2023/03/12 11:21:27;;;;;;;26.08;15.82;;;3.20;99.90;;;;;;5067558;28;20094;-65
2023/03/12 11:23:56;;;;;;;22.90;14.57;;;3.20;99.90;;;;;;5052953;28;20113;-64
2023/03/12 11:26:24;;;;;;;26.10;15.80;;;3.30;99.90;;;;;;5053664;28;20079;-65
2023/03/12 11:28:55;;;;;;;23.33;15.13;;;3.30;99.90;;;;;;5050452;28;20040;-66
2023/03/12 11:31:24;;;;;;;;;;;3.40;99.90;;;;;;5050854;28;20033;-64
2023/03/12 11:33:52;;;;;;;22.80;14.45;;;3.40;99.90;;;;;;5049823;28;19923;-64
2023/03/12 11:36:44;;;;;;;28.38;16.08;;;3.40;99.90;;;;;;5054472;28;20051;-65
2023/03/12 11:39:12;;;;;;;24.77;14.25;;;3.50;99.90;;;;;;5050863;28;20040;-64
2023/03/12 11:42:13;;;;;;;21.70;13.00;;;3.60;99.90;;;;;;5051033;28;20045;-64
2023/03/12 11:44:57;;;;;;;22.43;13.57;;;3.70;99.90;;;;;;5042630;28;20040;-64
2023/03/12 11:47:56;;;;;;;24.33;13.85;;;3.70;99.90;;;;;;5054268;28;20055;-64
2023/03/12 11:50:41;;;;;;;22.80;12.98;;;3.80;99.90;;;;;;5034192;28;20049;-64
2023/03/12 11:53:41;;;;;;;24.88;12.70;;;3.90;99.90;;;;;;5041730;28;20029;-64
2023/03/12 11:56:23;;;;;;;22.20;12.57;;;3.90;99.90;;;;;;5039489;28;20124;-64
2023/03/12 11:59:21;;;;;;;24.30;13.63;;;4.10;99.90;;;;;;5052939;28;20045;-64
2023/03/12 12:02:19;;;;;;;23.05;13.15;;;4.20;99.90;;;;;;5029390;28;20049;-64
2023/03/12 12:05:12;;;;;;;24.17;13.38;;;4.30;99.90;;;;;;5047213;28;20071;-64
2023/03/12 12:07:40;;;;;;;23.45;12.32;;;4.40;99.90;;;;;;5046855;28;20116;-64
2023/03/12 12:10:33;;;;;;;25.42;13.38;;;4.50;99.90;;;;;;5051757;28;20043;-65
2023/03/12 12:13:15;;;;;;;22.92;12.15;;;4.50;99.90;;;;;;5042145;28;20037;-64
2023/03/12 12:15:55;;;;;;;25.08;12.45;;;4.60;99.90;;;;;;5050662;28;20037;-64
2023/03/12 12:18:39;;;;;;;28.20;12.82;;;4.70;99.90;;;;;;5043305;28;20128;-64
2023/03/12 12:21:30;;;;;;;23.63;12.48;;;4.80;99.90;;;;;;5045239;28;20076;-64
2023/03/12 12:24:04;;;;;;;26.58;11.80;;;4.90;99.90;;;;;;5052380;28;20132;-64
2023/03/12 12:26:56;;;;;;;23.45;12.15;;;4.90;99.90;;;;;;5052023;28;20086;-64
2023/03/12 12:29:43;;;;;;;22.90;12.57;;;5.10;99.90;;;;;;5050461;28;20037;-64
2023/03/12 12:32:16;;;;;;;27.20;13.45;;;5.10;99.90;;;;;;5033487;28;20041;-64
2023/03/12 12:35:03;;;;;;;28.73;14.20;;;5.20;99.90;;;;;;5048009;28;20047;-64
2023/03/12 12:37:47;;;;;;;25.73;13.02;;;5.30;99.90;;;;;;5047835;28;20037;-64
2023/03/12 12:40:48;;;;;;;24.15;11.52;;;5.30;99.90;;;;;;5047144;28;20501;-65
2023/03/12 12:43:27;;;;;;;25.60;12.27;;;5.40;99.90;;;;;;5050010;28;20030;-65
2023/03/12 12:46:00;;;;;;;24.63;11.90;;;5.40;99.90;;;;;;5050958;28;20116;-65
2023/03/12 12:48:39;;;;;;;28.30;13.60;;;5.40;99.90;;;;;;5053402;28;20371;-65
2023/03/12 12:51:08;;;;;;;35.78;15.43;;;5.50;99.90;;;;;;5046127;28;20109;-65
2023/03/12 12:53:50;;;;;;;26.00;13.18;;;5.60;99.90;;;;;;5046473;28;20045;-65
2023/03/12 12:56:28;;;;;;;31.95;15.05;;;5.70;99.90;;;;;;5048435;28;20041;-64
2023/03/12 12:59:31;;;;;;;34.88;15.52;;;5.70;99.90;;;;;;5050124;28;20041;-64
2023/03/12 13:01:58;;;;;;;39.70;16.63;;;5.70;99.90;;;;;;5046666;28;20497;-64